Zim Rio Grande — 9HNV9 — position and weather

sailwx.info

Track history (hours):
 
Tides and Currents Weather Stations Pressure Air Temp Water Temp Dewpoint Dewpoint Depression Visibility Wind Speed Wind Dir Waves Ship Positions

Zim Rio Grande

Last reported at 2016-Feb-09 21:08 UTC. Time now 2016-Feb-10 04:37 UTC.
Position N 38°55' E 118°05'.

Length 260 m; draft 9.9 m.

Type: Ship (hazmat cat A). MMSI: 249253000.

Date/timePositionNaut miles runAvg speedWind from/ knotsBaromVisibWave heightAir tempDewpointWater temp
2016-Feb-09 21:08N 38°55' E 118°05'711.8
2016-Feb-09 20:33N 38°57' E 117°57'8 7.9
2016-Feb-09 19:29N 38°60' E 117°47'0 0.0
2016-Feb-09 18:29N 38°60' E 117°47'0 0.0
2016-Feb-09 17:23N 38°60' E 117°47'0 0.0
2016-Feb-09 16:29N 38°60' E 117°47'0 0.0
2016-Feb-09 15:29N 38°60' E 117°47'0 0.0
2016-Feb-09 14:29N 38°60' E 117°47'0 0.0
2016-Feb-09 12:23N 38°60' E 117°47'0 0.0
2016-Feb-09 11:23N 38°60' E 117°47'0 0.0
2016-Feb-09 10:11N 38°60' E 117°47'0 0.1
2016-Feb-09 09:29N 38°60' E 117°47'0 0.0
2016-Feb-09 08:29N 38°60' E 117°47'0 0.0
2016-Feb-09 07:17N 38°60' E 117°47'0 0.1
2016-Feb-09 06:29N 38°60' E 117°47'0 0.0
2016-Feb-09 05:23N 38°60' E 117°47'0 0.0
2016-Feb-09 04:23N 38°60' E 117°47'0 0.0
2016-Feb-09 03:29N 38°60' E 117°47'3 3.7
2016-Feb-09 02:33N 38°58' E 117°50'8 6.6
2016-Feb-09 01:18N 38°58' E 118°01'16013.5
2016-Feb-08 13:27N 38°26' E 121°21'2115.4
2016-Feb-08 12:04N 38°16' E 121°45'9013.8
2016-Feb-08 05:33N 37°12' E 123°04'1514.9
2016-Feb-08 04:32N 36°57' E 123°08'1515.0
2016-Feb-08 03:33N 36°42' E 123°12'  
2016-Feb-05 22:06N 24°27' E 119°19'814.8
2016-Feb-05 21:33N 24°25' E 119°10'1715.1
2016-Feb-05 20:24N 24°20' E 118°52'1314.9
2016-Feb-05 19:32N 24°17' E 118°38'1515.1
2016-Feb-05 18:33N 24°14' E 118°22'1414.4
2016-Feb-05 17:33N 24°22' E 118°09'1111.1
2016-Feb-05 16:34N 24°27' E 117°58'0 0.2
2016-Feb-05 15:32N 24°27' E 117°58'0 0.0
2016-Feb-05 14:32N 24°27' E 117°58'0 0.1
2016-Feb-05 13:29N 24°27' E 117°58'0 0.0
2016-Feb-05 12:32N 24°27' E 117°58'0 0.0
2016-Feb-05 11:32N 24°27' E 117°58'0 0.0
2016-Feb-05 10:32N 24°27' E 117°58'0 0.1
2016-Feb-05 09:32N 24°27' E 117°58'0 0.0
2016-Feb-05 08:32N 24°27' E 117°58'0 0.1
2016-Feb-05 07:32N 24°27' E 117°58'0 0.0
2016-Feb-05 06:32N 24°27' E 117°58'3 3.4
2016-Feb-05 05:33N 24°26' E 118°02'9 8.6
2016-Feb-05 04:33N 24°21' E 118°09'1010.0
2016-Feb-05 03:33N 24°14' E 118°17'1010.1
2016-Feb-05 02:33N 24°04' E 118°15'1211.0
2016-Feb-05 01:25N 23°53' E 118°08'1111.6
2016-Feb-05 00:30N 23°45' E 117°60'1414.9
2016-Feb-04 23:33N 23°34' E 117°50'  
2016-Jan-31 23:09N 01°15' E 104°13'1016.2
2016-Jan-31 22:33N 01°14' E 104°03'1413.9
2016-Jan-31 21:33N 01°10' E 103°50'1111.4
2016-Jan-31 20:33N 01°03' E 103°41'  
Track history (hours):
 
Tides and Currents Weather Stations Pressure Air Temp Water Temp Dewpoint Dewpoint Depression Visibility Wind Speed Wind Dir Waves Ship Positions

Zim Rio Grande

Last reported at 2016-Feb-09 21:08 UTC. Time now 2016-Feb-10 04:37 UTC.
Position N 38°55' E 118°05'.

Length 260 m; draft 9.9 m.

Type: Ship (hazmat cat A). MMSI: 249253000.

Date/timePositionNaut miles runAvg speedWind from/ knotsBaromVisibWave heightAir tempDewpointWater temp
2016-Feb-09 21:08N 38°55' E 118°05'711.8
2016-Feb-09 20:33N 38°57' E 117°57'8 7.9
2016-Feb-09 19:29N 38°60' E 117°47'0 0.0
2016-Feb-09 18:29N 38°60' E 117°47'0 0.0
2016-Feb-09 17:23N 38°60' E 117°47'0 0.0
2016-Feb-09 16:29N 38°60' E 117°47'0 0.0
2016-Feb-09 15:29N 38°60' E 117°47'0 0.0
2016-Feb-09 14:29N 38°60' E 117°47'0 0.0
2016-Feb-09 12:23N 38°60' E 117°47'0 0.0
2016-Feb-09 11:23N 38°60' E 117°47'0 0.0
2016-Feb-09 10:11N 38°60' E 117°47'0 0.1
2016-Feb-09 09:29N 38°60' E 117°47'0 0.0
2016-Feb-09 08:29N 38°60' E 117°47'0 0.0
2016-Feb-09 07:17N 38°60' E 117°47'0 0.1
2016-Feb-09 06:29N 38°60' E 117°47'0 0.0
2016-Feb-09 05:23N 38°60' E 117°47'0 0.0
2016-Feb-09 04:23N 38°60' E 117°47'0 0.0
2016-Feb-09 03:29N 38°60' E 117°47'3 3.7
2016-Feb-09 02:33N 38°58' E 117°50'8 6.6
2016-Feb-09 01:18N 38°58' E 118°01'16013.5
2016-Feb-08 13:27N 38°26' E 121°21'2115.4
2016-Feb-08 12:04N 38°16' E 121°45'9013.8
2016-Feb-08 05:33N 37°12' E 123°04'1514.9
2016-Feb-08 04:32N 36°57' E 123°08'1515.0
2016-Feb-08 03:33N 36°42' E 123°12'  
2016-Feb-05 22:06N 24°27' E 119°19'814.8
2016-Feb-05 21:33N 24°25' E 119°10'1715.1
2016-Feb-05 20:24N 24°20' E 118°52'1314.9
2016-Feb-05 19:32N 24°17' E 118°38'1515.1
2016-Feb-05 18:33N 24°14' E 118°22'1414.4
2016-Feb-05 17:33N 24°22' E 118°09'1111.1
2016-Feb-05 16:34N 24°27' E 117°58'0 0.2
2016-Feb-05 15:32N 24°27' E 117°58'0 0.0
2016-Feb-05 14:32N 24°27' E 117°58'0 0.1
2016-Feb-05 13:29N 24°27' E 117°58'0 0.0
2016-Feb-05 12:32N 24°27' E 117°58'0 0.0
2016-Feb-05 11:32N 24°27' E 117°58'0 0.0
2016-Feb-05 10:32N 24°27' E 117°58'0 0.1
2016-Feb-05 09:32N 24°27' E 117°58'0 0.0
2016-Feb-05 08:32N 24°27' E 117°58'0 0.1
2016-Feb-05 07:32N 24°27' E 117°58'0 0.0
2016-Feb-05 06:32N 24°27' E 117°58'3 3.4
2016-Feb-05 05:33N 24°26' E 118°02'9 8.6
2016-Feb-05 04:33N 24°21' E 118°09'1010.0
2016-Feb-05 03:33N 24°14' E 118°17'1010.1
2016-Feb-05 02:33N 24°04' E 118°15'1211.0
2016-Feb-05 01:25N 23°53' E 118°08'1111.6
2016-Feb-05 00:30N 23°45' E 117°60'1414.9
2016-Feb-04 23:33N 23°34' E 117°50'  
2016-Jan-31 23:09N 01°15' E 104°13'1016.2
2016-Jan-31 22:33N 01°14' E 104°03'1413.9
2016-Jan-31 21:33N 01°10' E 103°50'1111.4
2016-Jan-31 20:33N 01°03' E 103°41'  

Dump ship's entire track history